Eg Express — 5VFH20 — position and weather

sailwx.info

Track history (hours):
 
Tides and Currents Weather Stations Pressure Air Temp Water Temp Dewpoint Dewpoint Depression Visibility Wind Speed Wind Dir Waves Ship Positions

Eg Express

Last reported at 2018-Jun-24 13:00 UTC. Time now 2018-Jun-25 13:55 UTC.
Position N 17°57' W 062°59'.

Length 18 m; draft 2.8 m.

Type: Towing. MMSI: 671966000.

Date/timePositionNaut miles runAvg speedWind from/ knotsBaromVisibWave heightAir tempDewpointWater temp
2018-Jun-24 13:00N 17°57' W 062°59'1 2.9
2018-Jun-24 12:29N 17°58' W 062°60'4 0.6
2018-Jun-24 05:46N 18°00' W 063°03'0 0.0
2018-Jun-24 05:29N 18°00' W 063°03'0 0.0
2018-Jun-24 04:59N 18°00' W 063°03'0 0.0
2018-Jun-24 04:29N 18°00' W 063°03'0 0.0
2018-Jun-24 03:47N 18°00' W 063°03'0 0.0
2018-Jun-24 03:29N 18°00' W 063°03'0 0.0
2018-Jun-24 02:50N 18°00' W 063°03'0 0.0
2018-Jun-24 01:35N 18°00' W 063°03'0 0.0
2018-Jun-24 01:23N 18°00' W 063°03'0 0.0
2018-Jun-24 00:50N 18°00' W 063°03'0 0.0
2018-Jun-24 00:20N 18°00' W 063°03'0 0.0
2018-Jun-23 23:53N 18°00' W 063°03'0 0.0
2018-Jun-23 23:23N 18°00' W 063°03'0 0.0
2018-Jun-23 22:38N 18°00' W 063°03'0 0.0
2018-Jun-23 22:26N 18°00' W 063°03'0 0.0
2018-Jun-23 21:56N 18°00' W 063°03'0 0.0
2018-Jun-23 21:23N 18°00' W 063°03'0 0.0
2018-Jun-23 20:55N 18°00' W 063°03'0 0.0
2018-Jun-23 20:26N 18°00' W 063°03'0 0.0
2018-Jun-23 19:56N 18°00' W 063°03'0 0.0
2018-Jun-23 19:23N 18°00' W 063°03'0 0.0
2018-Jun-23 18:57N 18°00' W 063°03'0 0.0
2018-Jun-23 18:29N 18°00' W 063°03'0 0.0
2018-Jun-23 17:56N 18°00' W 063°03'0 0.0
2018-Jun-23 17:14N 18°00' W 063°03'0 0.0
2018-Jun-23 16:59N 18°00' W 063°03'0 0.0
2018-Jun-23 16:25N 18°00' W 063°03'0 0.0
2018-Jun-23 15:55N 18°00' W 063°03'0 0.0
2018-Jun-23 15:16N 18°00' W 063°03'0 0.0
2018-Jun-23 14:55N 18°00' W 063°03'0 0.0
2018-Jun-23 14:28N 18°00' W 063°03'0 0.0
2018-Jun-23 13:58N 18°00' W 063°03'0 0.0
2018-Jun-23 13:14N 18°00' W 063°03'0 0.0
2018-Jun-23 12:58N 18°00' W 063°03'0 0.0
2018-Jun-23 12:29N 18°00' W 063°03'0 0.0
2018-Jun-23 11:58N 18°00' W 063°03'0 0.0
2018-Jun-23 11:20N 18°00' W 063°03'0 0.0
2018-Jun-23 10:53N 18°00' W 063°03'0 0.0
2018-Jun-23 10:22N 18°00' W 063°03'0 0.0
2018-Jun-23 09:49N 18°00' W 063°03'0 0.0
2018-Jun-23 09:22N 18°00' W 063°03'0 0.0
2018-Jun-23 08:53N 18°00' W 063°03'0 0.0
2018-Jun-23 08:23N 18°00' W 063°03'0 0.0
2018-Jun-23 07:53N 18°00' W 063°03'0 0.0
2018-Jun-23 07:25N 18°00' W 063°03'0 0.0
2018-Jun-23 06:55N 18°00' W 063°03'0 0.0
2018-Jun-23 06:25N 18°00' W 063°03'0 0.0
2018-Jun-23 05:55N 18°00' W 063°03'0 0.0
2018-Jun-23 05:25N 18°00' W 063°03'0 0.0
2018-Jun-23 04:59N 18°00' W 063°03'0 0.0
2018-Jun-23 04:29N 18°00' W 063°03'0 0.0
2018-Jun-23 03:58N 18°00' W 063°03'0 0.0
2018-Jun-23 03:29N 18°00' W 063°03'0 0.0
2018-Jun-23 02:56N 18°00' W 063°03'0 0.2
2018-Jun-23 02:28N 18°00' W 063°03'2 3.7
2018-Jun-23 01:58N 17°59' W 063°01'2 3.6
2018-Jun-23 01:30N 17°58' W 063°00'4 4.0
2018-Jun-23 00:32N 17°56' W 062°57'4 0.4
2018-Jun-22 13:59N 17°58' W 062°60'2 3.5
2018-Jun-22 13:22N 17°59' W 063°02'2 3.6
2018-Jun-22 12:56N 18°00' W 063°03'0 0.7
2018-Jun-22 12:30N 18°00' W 063°03'0 0.0
2018-Jun-22 11:57N 18°00' W 063°03'0 0.0
2018-Jun-22 11:27N 18°00' W 063°03'0 0.0
2018-Jun-22 10:48N 18°00' W 063°03'0 0.0
2018-Jun-22 10:30N 18°00' W 063°03'0 0.0
2018-Jun-22 09:45N 18°00' W 063°03'0 0.0
2018-Jun-22 09:30N 18°00' W 063°03'0 0.0
2018-Jun-22 09:00N 18°00' W 063°03'0 0.0
2018-Jun-22 08:21N 18°00' W 063°03'0 0.0
2018-Jun-22 07:51N 18°00' W 063°03'0 0.0
2018-Jun-22 07:21N 18°00' W 063°03'0 0.0
2018-Jun-22 06:48N 18°00' W 063°03'0 0.0
2018-Jun-22 06:21N 18°00' W 063°03'0 0.0
2018-Jun-22 05:51N 18°00' W 063°03'0 0.0
2018-Jun-22 05:21N 18°00' W 063°03'0 0.0
2018-Jun-22 04:51N 18°00' W 063°03'0 0.0
2018-Jun-22 04:24N 18°00' W 063°03'0 0.0
2018-Jun-22 03:54N 18°00' W 063°03'0 0.0
2018-Jun-22 03:24N 18°00' W 063°03'0 0.0
2018-Jun-22 02:59N 18°00' W 063°03'0 0.1
2018-Jun-22 02:23N 18°00' W 063°03'0 0.5
2018-Jun-22 01:53N 18°00' W 063°03'2 3.9
2018-Jun-22 01:27N 17°59' W 063°02'2 4.1
2018-Jun-22 00:58N 17°58' W 062°60'2 4.1
2018-Jun-22 00:29N 17°56' W 062°58'1 0.0
2018-Jun-21 06:22N 17°56' W 062°59'1 1.5
2018-Jun-21 05:50N 17°56' W 062°60'1 1.5
2018-Jun-21 05:29N 17°56' W 063°00'1 1.5
2018-Jun-21 05:00N 17°56' W 063°01'1 1.6
2018-Jun-21 04:25N 17°57' W 063°02'1 1.7
2018-Jun-21 03:53N 17°57' W 063°03'1 1.6
2018-Jun-21 03:30N 17°57' W 063°03'1 1.5
2018-Jun-21 02:53N 17°57' W 063°04'1 1.4
2018-Jun-21 02:30N 17°57' W 063°05'1 1.5
2018-Jun-21 01:50N 17°58' W 063°06'1 1.6
2018-Jun-21 01:30N 17°58' W 063°06'1 1.6
2018-Jun-21 01:00N 17°58' W 063°07'1 1.7
2018-Jun-21 00:25N 17°58' W 063°08'1 1.8
2018-Jun-20 23:52N 17°58' W 063°09'1 1.8
2018-Jun-20 23:30N 17°58' W 063°10'1 1.7
2018-Jun-20 23:00N 17°58' W 063°11'1 1.7
2018-Jun-20 22:30N 17°58' W 063°12'1 2.9
2018-Jun-20 21:59N 17°59' W 063°13'2 3.5
2018-Jun-20 21:30N 17°59' W 063°15'2 3.4
2018-Jun-20 21:00N 17°59' W 063°17'2 3.1
2018-Jun-20 20:30N 17°59' W 063°18'2 3.1
2018-Jun-20 20:00N 17°60' W 063°20'2 3.0
2018-Jun-20 19:30N 17°60' W 063°21'1 2.9
2018-Jun-20 19:00N 18°00' W 063°23'1 3.0
2018-Jun-20 18:30N 18°00' W 063°24'2 3.1
2018-Jun-20 18:00N 18°01' W 063°26'  
Track history (hours):
 
Tides and Currents Weather Stations Pressure Air Temp Water Temp Dewpoint Dewpoint Depression Visibility Wind Speed Wind Dir Waves Ship Positions

Eg Express

Last reported at 2018-Jun-24 13:00 UTC. Time now 2018-Jun-25 13:55 UTC.
Position N 17°57' W 062°59'.

Length 18 m; draft 2.8 m.

Type: Towing. MMSI: 671966000.

Date/timePositionNaut miles runAvg speedWind from/ knotsBaromVisibWave heightAir tempDewpointWater temp
2018-Jun-24 13:00N 17°57' W 062°59'1 2.9
2018-Jun-24 12:29N 17°58' W 062°60'4 0.6
2018-Jun-24 05:46N 18°00' W 063°03'0 0.0
2018-Jun-24 05:29N 18°00' W 063°03'0 0.0
2018-Jun-24 04:59N 18°00' W 063°03'0 0.0
2018-Jun-24 04:29N 18°00' W 063°03'0 0.0
2018-Jun-24 03:47N 18°00' W 063°03'0 0.0
2018-Jun-24 03:29N 18°00' W 063°03'0 0.0
2018-Jun-24 02:50N 18°00' W 063°03'0 0.0
2018-Jun-24 01:35N 18°00' W 063°03'0 0.0
2018-Jun-24 01:23N 18°00' W 063°03'0 0.0
2018-Jun-24 00:50N 18°00' W 063°03'0 0.0
2018-Jun-24 00:20N 18°00' W 063°03'0 0.0
2018-Jun-23 23:53N 18°00' W 063°03'0 0.0
2018-Jun-23 23:23N 18°00' W 063°03'0 0.0
2018-Jun-23 22:38N 18°00' W 063°03'0 0.0
2018-Jun-23 22:26N 18°00' W 063°03'0 0.0
2018-Jun-23 21:56N 18°00' W 063°03'0 0.0
2018-Jun-23 21:23N 18°00' W 063°03'0 0.0
2018-Jun-23 20:55N 18°00' W 063°03'0 0.0
2018-Jun-23 20:26N 18°00' W 063°03'0 0.0
2018-Jun-23 19:56N 18°00' W 063°03'0 0.0
2018-Jun-23 19:23N 18°00' W 063°03'0 0.0
2018-Jun-23 18:57N 18°00' W 063°03'0 0.0
2018-Jun-23 18:29N 18°00' W 063°03'0 0.0
2018-Jun-23 17:56N 18°00' W 063°03'0 0.0
2018-Jun-23 17:14N 18°00' W 063°03'0 0.0
2018-Jun-23 16:59N 18°00' W 063°03'0 0.0
2018-Jun-23 16:25N 18°00' W 063°03'0 0.0
2018-Jun-23 15:55N 18°00' W 063°03'0 0.0
2018-Jun-23 15:16N 18°00' W 063°03'0 0.0
2018-Jun-23 14:55N 18°00' W 063°03'0 0.0
2018-Jun-23 14:28N 18°00' W 063°03'0 0.0
2018-Jun-23 13:58N 18°00' W 063°03'0 0.0
2018-Jun-23 13:14N 18°00' W 063°03'0 0.0
2018-Jun-23 12:58N 18°00' W 063°03'0 0.0
2018-Jun-23 12:29N 18°00' W 063°03'0 0.0
2018-Jun-23 11:58N 18°00' W 063°03'0 0.0
2018-Jun-23 11:20N 18°00' W 063°03'0 0.0
2018-Jun-23 10:53N 18°00' W 063°03'0 0.0
2018-Jun-23 10:22N 18°00' W 063°03'0 0.0
2018-Jun-23 09:49N 18°00' W 063°03'0 0.0
2018-Jun-23 09:22N 18°00' W 063°03'0 0.0
2018-Jun-23 08:53N 18°00' W 063°03'0 0.0
2018-Jun-23 08:23N 18°00' W 063°03'0 0.0
2018-Jun-23 07:53N 18°00' W 063°03'0 0.0
2018-Jun-23 07:25N 18°00' W 063°03'0 0.0
2018-Jun-23 06:55N 18°00' W 063°03'0 0.0
2018-Jun-23 06:25N 18°00' W 063°03'0 0.0
2018-Jun-23 05:55N 18°00' W 063°03'0 0.0
2018-Jun-23 05:25N 18°00' W 063°03'0 0.0
2018-Jun-23 04:59N 18°00' W 063°03'0 0.0
2018-Jun-23 04:29N 18°00' W 063°03'0 0.0
2018-Jun-23 03:58N 18°00' W 063°03'0 0.0
2018-Jun-23 03:29N 18°00' W 063°03'0 0.0
2018-Jun-23 02:56N 18°00' W 063°03'0 0.2
2018-Jun-23 02:28N 18°00' W 063°03'2 3.7
2018-Jun-23 01:58N 17°59' W 063°01'2 3.6
2018-Jun-23 01:30N 17°58' W 063°00'4 4.0
2018-Jun-23 00:32N 17°56' W 062°57'4 0.4
2018-Jun-22 13:59N 17°58' W 062°60'2 3.5
2018-Jun-22 13:22N 17°59' W 063°02'2 3.6
2018-Jun-22 12:56N 18°00' W 063°03'0 0.7
2018-Jun-22 12:30N 18°00' W 063°03'0 0.0
2018-Jun-22 11:57N 18°00' W 063°03'0 0.0
2018-Jun-22 11:27N 18°00' W 063°03'0 0.0
2018-Jun-22 10:48N 18°00' W 063°03'0 0.0
2018-Jun-22 10:30N 18°00' W 063°03'0 0.0
2018-Jun-22 09:45N 18°00' W 063°03'0 0.0
2018-Jun-22 09:30N 18°00' W 063°03'0 0.0
2018-Jun-22 09:00N 18°00' W 063°03'0 0.0
2018-Jun-22 08:21N 18°00' W 063°03'0 0.0
2018-Jun-22 07:51N 18°00' W 063°03'0 0.0
2018-Jun-22 07:21N 18°00' W 063°03'0 0.0
2018-Jun-22 06:48N 18°00' W 063°03'0 0.0
2018-Jun-22 06:21N 18°00' W 063°03'0 0.0
2018-Jun-22 05:51N 18°00' W 063°03'0 0.0
2018-Jun-22 05:21N 18°00' W 063°03'0 0.0
2018-Jun-22 04:51N 18°00' W 063°03'0 0.0
2018-Jun-22 04:24N 18°00' W 063°03'0 0.0
2018-Jun-22 03:54N 18°00' W 063°03'0 0.0
2018-Jun-22 03:24N 18°00' W 063°03'0 0.0
2018-Jun-22 02:59N 18°00' W 063°03'0 0.1
2018-Jun-22 02:23N 18°00' W 063°03'0 0.5
2018-Jun-22 01:53N 18°00' W 063°03'2 3.9
2018-Jun-22 01:27N 17°59' W 063°02'2 4.1
2018-Jun-22 00:58N 17°58' W 062°60'2 4.1
2018-Jun-22 00:29N 17°56' W 062°58'1 0.0
2018-Jun-21 06:22N 17°56' W 062°59'1 1.5
2018-Jun-21 05:50N 17°56' W 062°60'1 1.5
2018-Jun-21 05:29N 17°56' W 063°00'1 1.5
2018-Jun-21 05:00N 17°56' W 063°01'1 1.6
2018-Jun-21 04:25N 17°57' W 063°02'1 1.7
2018-Jun-21 03:53N 17°57' W 063°03'1 1.6
2018-Jun-21 03:30N 17°57' W 063°03'1 1.5
2018-Jun-21 02:53N 17°57' W 063°04'1 1.4
2018-Jun-21 02:30N 17°57' W 063°05'1 1.5
2018-Jun-21 01:50N 17°58' W 063°06'1 1.6
2018-Jun-21 01:30N 17°58' W 063°06'1 1.6
2018-Jun-21 01:00N 17°58' W 063°07'1 1.7
2018-Jun-21 00:25N 17°58' W 063°08'1 1.8
2018-Jun-20 23:52N 17°58' W 063°09'1 1.8
2018-Jun-20 23:30N 17°58' W 063°10'1 1.7
2018-Jun-20 23:00N 17°58' W 063°11'1 1.7
2018-Jun-20 22:30N 17°58' W 063°12'1 2.9
2018-Jun-20 21:59N 17°59' W 063°13'2 3.5
2018-Jun-20 21:30N 17°59' W 063°15'2 3.4
2018-Jun-20 21:00N 17°59' W 063°17'2 3.1
2018-Jun-20 20:30N 17°59' W 063°18'2 3.1
2018-Jun-20 20:00N 17°60' W 063°20'2 3.0
2018-Jun-20 19:30N 17°60' W 063°21'1 2.9
2018-Jun-20 19:00N 18°00' W 063°23'1 3.0
2018-Jun-20 18:30N 18°00' W 063°24'2 3.1
2018-Jun-20 18:00N 18°01' W 063°26'  

Dump ship's entire track history